createdAt,value
2023-02-02T00:01:16.896Z,4.07
2023-02-02T00:03:44.810Z,3.97
2023-02-02T00:06:12.961Z,4.73
2023-02-02T00:08:42.209Z,4.10
2023-02-02T00:11:10.108Z,3.47
2023-02-02T00:13:38.281Z,3.60
2023-02-02T00:16:42.429Z,3.20
2023-02-02T00:19:12.454Z,3.23
2023-02-02T00:21:40.875Z,3.80
2023-02-02T00:24:11.430Z,3.43
2023-02-02T00:26:40.912Z,3.53
2023-02-02T00:29:13.714Z,3.53
2023-02-02T00:31:41.588Z,3.60
2023-02-02T00:34:11.985Z,3.47
2023-02-02T00:36:40.045Z,3.20
2023-02-02T00:39:08.313Z,3.30
2023-02-02T00:41:37.467Z,3.23
2023-02-02T00:44:23.707Z,3.23
2023-02-02T00:46:51.907Z,3.30
2023-02-02T00:49:20.024Z,3.47
2023-02-02T00:51:48.280Z,3.87
2023-02-02T00:54:17.064Z,2.83
2023-02-02T00:56:49.351Z,3.70
2023-02-02T00:59:17.432Z,2.80
2023-02-02T01:01:45.767Z,3.73
2023-02-02T01:04:13.772Z,2.43
2023-02-02T01:06:42.140Z,4.10
2023-02-02T01:09:10.201Z,3.00
2023-02-02T01:11:38.294Z,2.53
2023-02-02T01:14:07.872Z,2.60
2023-02-02T01:16:35.749Z,2.37
2023-02-02T01:19:03.705Z,3.13
2023-02-02T01:21:32.450Z,2.03
2023-02-02T01:24:00.417Z,2.07
2023-02-02T01:26:28.348Z,2.50
2023-02-02T01:28:56.178Z,2.40
2023-02-02T01:31:25.531Z,1.90
2023-02-02T01:33:53.953Z,2.30
2023-02-02T01:36:23.461Z,2.50
2023-02-02T01:38:51.883Z,2.10
2023-02-02T01:41:23.407Z,1.50
2023-02-02T01:43:57.325Z,2.20
2023-02-02T01:46:28.680Z,1.73
2023-02-02T01:49:17.248Z,2.00
2023-02-02T01:51:50.026Z,1.90
2023-02-02T01:54:22.693Z,1.60
2023-02-02T01:56:54.035Z,1.60
2023-02-02T01:59:22.722Z,1.30
2023-02-02T02:01:54.837Z,2.00
2023-02-02T02:04:23.520Z,1.73
2023-02-02T02:06:53.556Z,1.30
2023-02-02T02:09:21.481Z,1.33
2023-02-02T02:11:49.972Z,1.90
2023-02-02T02:14:36.003Z,1.97
2023-02-02T02:17:18.577Z,1.80
2023-02-02T02:20:43.432Z,1.80
2023-02-02T02:23:57.837Z,1.97
2023-02-02T02:26:57.567Z,1.40
2023-02-02T02:30:02.034Z,1.43
2023-02-02T02:32:41.245Z,1.53
2023-02-02T02:35:18.555Z,1.70
2023-02-02T02:37:50.319Z,2.03
2023-02-02T02:40:26.710Z,2.40
2023-02-02T02:42:58.278Z,2.17
2023-02-02T02:45:28.764Z,2.27
2023-02-02T02:47:58.121Z,2.57
2023-02-02T02:50:25.970Z,2.53
2023-02-02T02:53:06.648Z,3.00
2023-02-02T02:55:42.950Z,3.50
2023-02-02T02:58:14.688Z,3.53
2023-02-02T03:00:57.520Z,3.23
2023-02-02T03:03:39.089Z,2.93
2023-02-02T03:06:13.726Z,3.67
2023-02-02T03:08:46.777Z,3.73
2023-02-02T03:11:18.860Z,3.37
2023-02-02T03:13:48.088Z,3.17
2023-02-02T03:16:17.175Z,3.90
2023-02-02T03:18:46.639Z,3.40
2023-02-02T03:21:16.868Z,3.30
2023-02-02T03:23:44.640Z,3.63
2023-02-02T03:26:12.552Z,2.80
2023-02-02T03:28:40.989Z,3.60
2023-02-02T03:31:09.159Z,4.30
2023-02-02T03:33:38.486Z,3.83
2023-02-02T03:36:08.845Z,3.53
2023-02-02T03:38:36.651Z,3.43
2023-02-02T03:41:05.766Z,3.50
2023-02-02T03:43:33.630Z,4.53
2023-02-02T03:46:04.758Z,4.30
2023-02-02T03:48:35.515Z,3.83
2023-02-02T03:51:08.296Z,4.60
2023-02-02T03:53:36.228Z,4.57
2023-02-02T03:56:04.973Z,4.00
2023-02-02T03:58:32.875Z,3.33
2023-02-02T04:01:05.267Z,3.77
2023-02-02T04:03:33.558Z,3.50
2023-02-02T04:06:01.548Z,3.87
2023-02-02T04:08:31.300Z,3.77
2023-02-02T04:10:59.581Z,3.80
2023-02-02T04:13:27.532Z,4.07
2023-02-02T04:16:00.785Z,3.53
2023-02-02T04:18:29.584Z,3.70
2023-02-02T04:20:59.203Z,3.70
2023-02-02T04:23:27.420Z,3.40
2023-02-02T04:25:56.768Z,2.93
2023-02-02T04:28:25.150Z,3.40
2023-02-02T04:30:54.248Z,4.13
2023-02-02T04:33:23.436Z,2.90
2023-02-02T04:35:51.394Z,3.40
2023-02-02T04:38:19.880Z,3.67
2023-02-02T04:40:49.437Z,2.93
2023-02-02T04:43:18.808Z,3.43
2023-02-02T04:45:46.828Z,4.97
2023-02-02T04:48:14.955Z,2.87
2023-02-02T04:50:42.772Z,4.23
2023-02-02T04:53:10.624Z,2.83
2023-02-02T04:55:39.015Z,3.17
2023-02-02T04:58:07.255Z,3.67
2023-02-02T05:00:36.464Z,2.77
2023-02-02T05:03:06.750Z,3.20
2023-02-02T05:05:34.804Z,3.20
2023-02-02T05:08:02.636Z,3.17
2023-02-02T05:10:30.444Z,3.60
2023-02-02T05:12:58.302Z,3.87
2023-02-02T05:15:26.389Z,3.23
2023-02-02T05:17:55.755Z,3.80
2023-02-02T05:20:23.688Z,3.67
2023-02-02T05:22:51.593Z,2.80
2023-02-02T05:25:20.109Z,3.00
2023-02-02T05:27:48.185Z,3.43
2023-02-02T05:30:19.435Z,3.47
2023-02-02T05:32:47.393Z,3.40
2023-02-02T05:35:16.644Z,3.43
2023-02-02T05:37:44.730Z,3.43
2023-02-02T05:40:15.032Z,3.60
2023-02-02T05:42:42.927Z,3.10
2023-02-02T05:45:11.959Z,3.73
2023-02-02T05:47:39.879Z,3.40
2023-02-02T05:50:09.467Z,3.63
2023-02-02T05:52:39.865Z,2.57
2023-02-02T05:55:08.325Z,3.53
2023-02-02T05:57:36.143Z,2.90
2023-02-02T06:00:04.910Z,3.37
2023-02-02T06:02:32.882Z,4.00
2023-02-02T06:05:00.722Z,2.90
2023-02-02T06:07:28.719Z,3.07
2023-02-02T06:09:58.196Z,2.93
2023-02-02T06:12:26.072Z,3.10
2023-02-02T06:14:53.932Z,3.43
2023-02-02T06:17:21.778Z,2.20
2023-02-02T06:19:49.601Z,2.97
2023-02-02T06:22:17.395Z,2.90
2023-02-02T06:24:45.593Z,3.30
2023-02-02T06:27:14.976Z,2.70
2023-02-02T06:29:42.785Z,3.67
2023-02-02T06:32:10.656Z,2.60
2023-02-02T06:34:38.524Z,3.50
2023-02-02T06:37:06.399Z,2.63
2023-02-02T06:39:34.268Z,2.73
2023-02-02T06:42:11.908Z,2.80
2023-02-02T06:44:49.436Z,2.47
2023-02-02T06:47:18.263Z,2.73
2023-02-02T06:49:46.202Z,2.63
2023-02-02T06:52:14.448Z,3.00
2023-02-02T06:54:42.288Z,3.17
2023-02-02T06:57:10.347Z,3.10
2023-02-02T06:59:41.062Z,2.77
2023-02-02T07:02:13.636Z,3.17
2023-02-02T07:04:41.481Z,2.63
2023-02-02T07:07:09.387Z,3.53
2023-02-02T07:09:37.418Z,3.13
2023-02-02T07:12:08.430Z,3.73
2023-02-02T07:14:36.310Z,2.53
2023-02-02T07:17:04.640Z,3.10
2023-02-02T07:19:33.972Z,2.90
2023-02-02T07:22:02.077Z,3.30
2023-02-02T07:24:30.080Z,2.63
2023-02-02T07:26:58.755Z,3.00
2023-02-02T07:29:26.686Z,4.00
2023-02-02T07:31:54.606Z,3.80
2023-02-02T07:34:22.818Z,3.53
2023-02-02T07:36:52.312Z,4.30
2023-02-02T07:39:20.265Z,2.77
2023-02-02T07:41:48.061Z,4.13
2023-02-02T07:44:18.955Z,3.40
2023-02-02T07:46:48.190Z,3.60
2023-02-02T07:49:18.593Z,3.40
2023-02-02T07:51:49.259Z,2.80
2023-02-02T07:54:18.688Z,3.23
2023-02-02T07:56:46.980Z,3.07
2023-02-02T07:59:16.115Z,3.20
2023-02-02T08:01:44.732Z,3.63
2023-02-02T08:04:12.725Z,3.03
2023-02-02T08:06:41.574Z,2.90
2023-02-02T08:09:10.684Z,2.90
2023-02-02T08:11:40.110Z,3.23
2023-02-02T08:14:08.576Z,3.47
2023-02-02T08:16:36.552Z,2.70
2023-02-02T08:19:04.818Z,3.23
2023-02-02T08:21:34.320Z,2.87
2023-02-02T08:24:03.048Z,3.27
2023-02-02T08:26:32.762Z,3.63
2023-02-02T08:29:03.898Z,3.17
2023-02-02T08:31:33.507Z,3.77
2023-02-02T08:34:01.447Z,2.73
2023-02-02T08:36:31.363Z,3.33
2023-02-02T08:39:03.042Z,3.57
2023-02-02T08:41:31.524Z,2.60
2023-02-02T08:44:00.715Z,2.83
2023-02-02T08:46:29.167Z,3.33
2023-02-02T08:48:57.126Z,3.43
2023-02-02T08:51:24.945Z,3.33
2023-02-02T08:53:53.045Z,2.87
2023-02-02T08:56:22.840Z,2.80
2023-02-02T08:58:53.632Z,2.53
2023-02-02T09:01:24.734Z,2.60
2023-02-02T09:03:55.239Z,3.40
2023-02-02T09:06:26.101Z,3.10
2023-02-02T09:08:53.986Z,3.30
2023-02-02T09:11:22.826Z,3.27
2023-02-02T09:13:54.519Z,2.83
2023-02-02T09:16:24.680Z,2.93
2023-02-02T09:18:53.332Z,2.97
2023-02-02T09:21:21.488Z,3.13
2023-02-02T09:23:50.863Z,2.20
2023-02-02T09:26:20.761Z,3.20
2023-02-02T09:28:50.284Z,2.60
2023-02-02T09:31:18.679Z,2.97
2023-02-02T10:46:22.941Z,2.30
2023-02-02T10:49:01.275Z,2.60
2023-02-02T10:51:30.359Z,2.40
2023-02-02T10:54:00.979Z,2.97
2023-02-02T10:56:34.326Z,3.80
2023-02-02T10:59:08.110Z,2.40
2023-02-02T11:01:37.411Z,3.10
2023-02-02T11:04:27.882Z,3.00
2023-02-02T11:06:55.796Z,2.97
2023-02-02T11:09:28.407Z,3.20
2023-02-02T11:12:01.799Z,4.13
2023-02-02T11:14:45.163Z,2.90
2023-02-02T11:17:21.921Z,2.57
2023-02-02T11:19:50.807Z,4.27
2023-02-02T11:22:32.371Z,3.70
2023-02-02T11:25:05.772Z,3.47
2023-02-02T11:27:36.073Z,2.53
2023-02-02T11:30:21.841Z,2.47
2023-02-02T11:32:51.387Z,2.37
2023-02-02T11:35:23.779Z,2.40
2023-02-02T11:38:01.142Z,2.50
2023-02-02T11:40:32.876Z,2.47
2023-02-02T11:43:06.201Z,2.30
2023-02-02T11:45:36.734Z,2.40
2023-02-02T11:48:11.461Z,2.40
2023-02-02T11:50:39.482Z,2.70
2023-02-02T11:53:07.412Z,2.67
2023-02-02T11:55:36.443Z,2.67
2023-02-02T11:58:30.853Z,2.53
2023-02-02T12:01:01.675Z,3.07
2023-02-02T12:03:36.789Z,2.83
2023-02-02T12:06:19.579Z,2.60
2023-02-02T12:08:48.108Z,2.10
2023-02-02T12:11:31.673Z,3.10
2023-02-02T12:14:18.165Z,3.07
2023-02-02T12:17:10.733Z,2.67
2023-02-02T12:20:13.887Z,2.37
2023-02-02T12:22:57.369Z,3.03
2023-02-02T12:25:40.473Z,2.67
2023-02-02T12:28:21.873Z,3.93
2023-02-02T12:31:00.049Z,4.30
2023-02-02T12:33:35.966Z,2.83
2023-02-02T12:36:23.328Z,4.00
2023-02-02T12:39:16.240Z,3.47
2023-02-02T12:42:07.876Z,3.67
2023-02-02T12:44:44.717Z,3.30
2023-02-02T12:47:21.549Z,2.33
2023-02-02T12:50:06.566Z,2.60
2023-02-02T12:52:58.686Z,2.40
2023-02-02T12:55:36.722Z,3.13
2023-02-02T12:58:11.657Z,2.90
2023-02-02T13:01:13.830Z,2.30
2023-02-02T13:04:07.795Z,2.07
2023-02-02T13:07:13.866Z,2.50
2023-02-02T13:09:50.544Z,2.50
2023-02-02T13:12:22.519Z,2.07
2023-02-02T13:14:54.714Z,2.47
2023-02-02T13:17:27.874Z,2.23
2023-02-02T13:19:58.823Z,2.57
2023-02-02T13:22:30.986Z,2.03
2023-02-02T13:25:03.915Z,2.43
2023-02-02T13:27:33.026Z,2.10
2023-02-02T13:30:07.114Z,2.37
2023-02-02T13:32:37.472Z,2.60
2023-02-02T13:35:17.227Z,2.17
2023-02-02T13:37:50.829Z,2.50
2023-02-02T13:40:26.449Z,2.37
2023-02-02T13:43:01.642Z,2.30
2023-02-02T13:45:43.176Z,2.83
2023-02-02T13:48:22.059Z,2.57
2023-02-02T13:51:18.860Z,2.10
2023-02-02T13:54:16.829Z,2.20
2023-02-02T13:56:59.284Z,1.60
2023-02-02T13:59:46.150Z,1.70
2023-02-02T14:02:23.620Z,2.10
2023-02-02T14:04:57.371Z,3.27
2023-02-02T14:07:32.848Z,1.87
2023-02-02T14:10:01.093Z,2.37
2023-02-02T14:12:33.864Z,2.20
2023-02-02T14:15:02.203Z,1.37
2023-02-02T14:17:53.973Z,2.00
2023-02-02T14:20:43.089Z,1.43
2023-02-02T14:23:48.418Z,1.00
2023-02-02T14:26:21.977Z,0.90
2023-02-02T14:28:52.415Z,0.80
2023-02-02T14:31:53.368Z,0.87
2023-02-02T14:34:35.401Z,0.90
2023-02-02T14:37:27.771Z,0.83
2023-02-02T14:40:01.052Z,0.70
2023-02-02T14:42:59.241Z,0.80
2023-02-02T14:45:34.024Z,1.20
2023-02-02T14:48:03.892Z,0.70
2023-02-02T14:50:45.580Z,0.70
2023-02-02T14:53:24.538Z,0.97
2023-02-02T14:56:00.370Z,0.60
2023-02-02T14:58:32.729Z,0.77
2023-02-02T15:01:09.305Z,0.60
2023-02-02T15:03:54.357Z,0.80
2023-02-02T15:06:32.361Z,1.57
2023-02-02T15:09:39.246Z,1.70
2023-02-02T15:12:23.604Z,1.90
2023-02-02T15:14:55.067Z,1.77
2023-02-02T15:17:34.620Z,2.37
2023-02-02T15:20:13.649Z,1.50
2023-02-02T15:22:46.582Z,1.53
2023-02-02T15:25:20.466Z,1.40
2023-02-02T15:27:57.080Z,1.47
2023-02-02T15:30:27.455Z,1.67
2023-02-02T15:32:57.348Z,1.90
2023-02-02T15:35:30.921Z,1.87
2023-02-02T15:38:02.120Z,1.87
2023-02-02T15:40:32.131Z,2.30
2023-02-02T15:43:02.667Z,2.47
2023-02-02T15:45:37.832Z,2.20
2023-02-02T15:48:15.866Z,2.40
2023-02-02T15:50:47.237Z,2.90
2023-02-02T15:53:21.689Z,2.73
2023-02-02T15:55:49.733Z,2.50
2023-02-02T15:58:30.393Z,2.60
2023-02-02T16:01:05.079Z,2.53
2023-02-02T16:03:41.945Z,2.77
2023-02-02T16:06:10.443Z,3.23
2023-02-02T16:08:41.010Z,3.07
2023-02-02T16:11:12.206Z,2.50
2023-02-02T16:13:41.922Z,2.73
2023-02-02T16:16:24.008Z,2.93
2023-02-02T16:19:06.007Z,3.40
2023-02-02T16:21:36.608Z,3.23
2023-02-02T16:24:08.083Z,3.57
2023-02-02T16:26:37.380Z,3.80
2023-02-02T16:29:06.668Z,4.93
2023-02-02T16:31:36.610Z,4.00
2023-02-02T16:34:06.575Z,3.97
2023-02-02T16:36:34.478Z,3.53
2023-02-02T16:39:02.401Z,4.20
2023-02-02T16:41:33.780Z,4.37
2023-02-02T16:44:31.080Z,3.70
2023-02-02T16:47:01.376Z,5.10
2023-02-02T16:49:31.517Z,4.40
2023-02-02T16:52:12.713Z,4.63
2023-02-02T16:54:43.273Z,5.27
2023-02-02T16:57:18.284Z,4.00
2023-02-02T16:59:50.001Z,4.47
2023-02-02T17:02:27.774Z,4.80
2023-02-02T17:05:02.021Z,4.07
2023-02-02T17:07:30.901Z,4.50
2023-02-02T17:10:21.524Z,3.97
2023-02-02T17:12:49.796Z,4.27
2023-02-02T17:15:29.799Z,4.97
2023-02-02T17:17:58.145Z,5.07
2023-02-02T17:20:27.891Z,4.20
2023-02-02T17:22:58.981Z,3.60
2023-02-02T17:25:32.345Z,4.00
2023-02-02T17:28:01.772Z,4.10
2023-02-02T17:30:30.647Z,4.07
2023-02-02T17:32:58.633Z,3.50
2023-02-02T17:35:39.860Z,4.10
2023-02-02T17:38:17.421Z,4.77
2023-02-02T17:40:45.785Z,4.07
2023-02-02T17:43:13.717Z,5.07
2023-02-02T17:45:41.686Z,3.93
2023-02-02T17:48:12.488Z,4.10
2023-02-02T17:50:43.205Z,4.03
2023-02-02T17:53:12.635Z,3.90
2023-02-02T17:55:42.451Z,5.10
2023-02-02T17:58:13.018Z,3.67
2023-02-02T18:00:41.584Z,4.27
2023-02-02T18:03:17.975Z,4.40
2023-02-02T18:05:47.579Z,3.77
2023-02-02T18:08:16.462Z,3.30
2023-02-02T18:10:44.541Z,4.03
2023-02-02T18:13:14.855Z,4.00
2023-02-02T18:15:42.719Z,5.00
2023-02-02T18:18:12.269Z,3.50
2023-02-02T18:20:42.478Z,3.90
2023-02-02T18:23:12.195Z,4.17
2023-02-02T18:25:40.264Z,3.83
2023-02-02T18:28:08.634Z,4.07
2023-02-02T18:30:38.541Z,4.33
2023-02-02T18:33:07.842Z,4.33
2023-02-02T18:35:36.110Z,4.73
2023-02-02T18:38:03.929Z,4.10
2023-02-02T18:40:33.047Z,5.00
2023-02-02T18:43:00.860Z,4.67
2023-02-02T18:45:28.927Z,4.73
2023-02-02T18:47:56.713Z,5.00
2023-02-02T18:50:24.719Z,6.30
2023-02-02T18:52:52.864Z,6.67
2023-02-02T18:55:20.868Z,9.00
2023-02-02T18:57:50.105Z,5.70
2023-02-02T19:00:19.199Z,5.47
2023-02-02T19:02:47.286Z,5.23
2023-02-02T19:05:32.590Z,5.37
2023-02-02T19:08:00.412Z,5.03
2023-02-02T19:10:28.736Z,4.13
2023-02-02T19:13:03.991Z,4.87
2023-02-02T19:15:33.843Z,4.70
2023-02-02T19:18:02.005Z,3.93
2023-02-02T19:20:31.470Z,4.20
2023-02-02T19:23:08.175Z,3.87
2023-02-02T19:25:36.266Z,4.00
2023-02-02T19:28:10.067Z,3.83
2023-02-02T19:30:38.518Z,4.30
2023-02-02T19:33:11.789Z,4.77
2023-02-02T19:35:40.124Z,4.20
2023-02-02T19:38:12.879Z,3.70
2023-02-02T19:40:41.511Z,3.90
2023-02-02T19:43:22.268Z,4.07
2023-02-02T19:45:50.183Z,3.70
2023-02-02T19:48:20.927Z,3.63
2023-02-02T19:50:48.979Z,3.57
2023-02-02T19:53:21.017Z,3.67
2023-02-02T19:55:49.898Z,4.30
2023-02-02T19:58:21.871Z,3.67
2023-02-02T20:00:51.535Z,3.97
2023-02-02T20:03:21.773Z,3.40
2023-02-02T20:05:51.324Z,4.00
2023-02-02T20:08:24.477Z,3.43
2023-02-02T20:10:54.173Z,4.40
2023-02-02T20:13:25.118Z,3.70
2023-02-02T20:16:03.359Z,3.90
2023-02-02T20:18:48.467Z,3.23
2023-02-02T20:21:23.513Z,3.27
2023-02-02T20:23:51.476Z,4.17
2023-02-02T20:26:25.834Z,3.77
2023-02-02T20:28:57.270Z,3.80
2023-02-02T20:31:29.067Z,3.50
2023-02-02T20:33:58.351Z,3.87
2023-02-02T20:36:36.771Z,3.80
2023-02-02T20:39:30.227Z,3.00
2023-02-02T20:41:58.731Z,4.07
2023-02-02T20:44:29.779Z,3.77
2023-02-02T20:47:00.112Z,4.50
2023-02-02T20:49:28.824Z,3.30
2023-02-02T20:51:57.989Z,4.17
2023-02-02T20:54:26.571Z,4.30
2023-02-02T20:56:54.445Z,3.83
2023-02-02T20:59:22.553Z,4.07
2023-02-02T21:01:52.902Z,3.53
2023-02-02T21:04:21.812Z,3.53
2023-02-02T21:06:50.111Z,2.87
2023-02-02T21:09:18.791Z,3.60
2023-02-02T21:11:46.761Z,3.73
2023-02-02T21:14:15.450Z,3.77
2023-02-02T21:16:43.385Z,4.33
2023-02-02T21:19:13.822Z,3.73
2023-02-02T21:21:41.702Z,3.53
2023-02-02T21:24:09.677Z,3.30
2023-02-02T21:26:37.572Z,3.80
2023-02-02T21:29:05.925Z,3.23
2023-02-02T21:31:35.180Z,3.33
2023-02-02T21:34:03.900Z,3.10
2023-02-02T21:36:35.969Z,3.50
2023-02-02T21:39:15.423Z,2.90
2023-02-02T21:41:43.557Z,3.03
2023-02-02T21:44:14.822Z,3.43
2023-02-02T21:46:43.072Z,3.13
2023-02-02T21:49:21.156Z,3.23
2023-02-02T21:51:50.953Z,4.30
2023-02-02T21:54:24.694Z,2.80
2023-02-02T21:56:54.067Z,4.17
2023-02-02T21:59:23.461Z,3.70
2023-02-02T22:01:52.841Z,3.50
2023-02-02T22:04:23.393Z,3.40
2023-02-02T22:06:55.168Z,3.17
2023-02-02T22:09:24.798Z,3.70
2023-02-02T22:11:56.553Z,3.10
2023-02-02T22:14:32.549Z,3.30
2023-02-02T22:17:00.590Z,2.87
2023-02-02T22:19:32.810Z,2.80
2023-02-02T22:22:18.985Z,3.27
2023-02-02T22:24:58.651Z,3.33
2023-02-02T22:27:30.133Z,2.97
2023-02-02T22:30:03.756Z,3.17
2023-02-02T22:32:31.549Z,3.30
2023-02-02T22:34:59.328Z,3.73
2023-02-02T22:37:28.516Z,3.30
2023-02-02T22:39:56.353Z,3.23
2023-02-02T22:42:24.184Z,3.40
2023-02-02T22:44:52.136Z,3.57
2023-02-02T22:47:20.172Z,3.17
2023-02-02T22:49:48.092Z,3.50
2023-02-02T22:52:16.418Z,3.00
2023-02-02T22:54:45.720Z,3.43
2023-02-02T22:57:13.763Z,3.00
2023-02-02T22:59:41.593Z,3.33
2023-02-02T23:02:09.414Z,4.30
2023-02-02T23:04:37.215Z,4.40
2023-02-02T23:07:05.066Z,3.70
2023-02-02T23:09:32.869Z,3.23
2023-02-02T23:12:02.052Z,3.53
2023-02-02T23:14:29.870Z,3.70
2023-02-02T23:16:57.690Z,2.93
2023-02-02T23:19:25.536Z,3.13
2023-02-02T23:21:53.403Z,3.33
2023-02-02T23:24:21.275Z,3.10
2023-02-02T23:26:49.080Z,3.80
2023-02-02T23:29:18.412Z,3.50
2023-02-02T23:31:46.907Z,3.57
2023-02-02T23:34:15.168Z,3.57
2023-02-02T23:36:43.165Z,3.27
2023-02-02T23:39:11.038Z,4.10
2023-02-02T23:41:39.281Z,3.30
2023-02-02T23:44:07.147Z,3.43
2023-02-02T23:46:37.729Z,3.93
2023-02-02T23:49:08.549Z,4.03
2023-02-02T23:51:36.468Z,3.40
2023-02-02T23:54:04.757Z,3.50
2023-02-02T23:56:32.816Z,3.00
2023-02-02T23:59:00.656Z,2.77
